Time;durP1;ratioP1;P1;durP2;ratioP2;P2;SDS_P1;SDS_P2;PMS_P1;PMS_P2;Temp;Humidity;BMP_temperature;BMP_pressure;BME280_temperature;BME280_humidity;BME280_pressure;Samples;Min_cycle;Max_cycle;Signal;HPM_P1;HPM_P2
2022/08/28 00:00:52;;;;;;;12.55;3.80;;;19.70;98.80;;;;;;2569572;23;20007;-72
2022/08/28 00:01:53;;;;;;;10.32;3.88;;;19.70;98.90;;;;;;2569139;23;20004;-72
2022/08/28 00:02:54;;;;;;;9.52;4.00;;;19.70;99.10;;;;;;2556086;23;20393;-72
2022/08/28 00:03:55;;;;;;;8.77;4.10;;;19.70;99.20;;;;;;2555579;23;20485;-72
2022/08/28 00:04:55;;;;;;;13.80;4.25;;;19.70;99.20;;;;;;2555987;23;20132;-72
2022/08/28 00:05:56;;;;;;;12.23;4.18;;;19.60;99.30;;;;;;2556165;23;20188;-72
2022/08/28 00:06:57;;;;;;;9.20;3.60;;;19.60;99.50;;;;;;2569325;23;20001;-72
2022/08/28 00:07:59;;;;;;;8.95;4.63;;;19.60;99.50;;;;;;2556027;23;20013;-72
2022/08/28 00:09:00;;;;;;;14.15;4.43;;;19.60;99.80;;;;;;2556100;23;20017;-72
2022/08/28 00:10:01;;;;;;;11.30;3.80;;;19.60;99.60;;;;;;2568836;23;20043;-72
2022/08/28 00:11:02;;;;;;;8.05;3.65;;;19.60;99.60;;;;;;2569356;23;20005;-72
2022/08/28 00:12:04;;;;;;;10.13;3.85;;;19.60;99.80;;;;;;2569275;23;20005;-72
2022/08/28 00:13:06;;;;;;;10.18;3.80;;;19.50;99.90;;;;;;2568988;23;20008;-72
2022/08/28 00:14:08;;;;;;;10.25;4.05;;;19.50;99.90;;;;;;2568953;23;20009;-72
2022/08/28 00:15:13;;;;;;;8.95;3.72;;;19.50;99.90;;;;;;2555846;23;20081;-72
2022/08/28 00:16:13;;;;;;;6.60;3.60;;;19.50;99.90;;;;;;2556567;23;20113;-72
2022/08/28 00:17:14;;;;;;;8.57;3.83;;;19.50;99.90;;;;;;2568974;23;20012;-72
2022/08/28 00:18:15;;;;;;;10.65;4.07;;;19.40;99.90;;;;;;2567859;23;20531;-72
2022/08/28 00:19:19;;;;;;;14.50;4.57;;;19.50;99.90;;;;;;2569424;23;20001;-72
2022/08/28 00:20:20;;;;;;;10.00;4.15;;;19.50;99.90;;;;;;2569043;23;20035;-72
2022/08/28 00:21:21;;;;;;;11.18;4.32;;;19.40;99.90;;;;;;2568907;23;20027;-72
2022/08/28 00:22:22;;;;;;;11.32;4.63;;;19.50;99.90;;;;;;2569284;23;19997;-72
2022/08/28 00:23:24;;;;;;;9.70;4.07;;;19.40;99.90;;;;;;2569018;23;19996;-72
2022/08/28 00:24:24;;;;;;;8.63;4.10;;;19.40;99.90;;;;;;2569329;23;20552;-72
2022/08/28 00:25:27;;;;;;;9.13;4.28;;;19.40;99.90;;;;;;2568764;23;20412;-72
2022/08/28 00:27:52;;;;;;;11.95;4.47;;;19.40;99.90;;;;;;2569154;23;20009;-72
2022/08/28 00:28:53;;;;;;;12.63;4.43;;;19.30;99.90;;;;;;2569659;23;20008;-72
2022/08/28 00:29:54;;;;;;;11.43;4.13;;;19.30;99.90;;;;;;2568824;23;20096;-72
2022/08/28 00:30:57;;;;;;;9.55;4.53;;;19.30;99.90;;;;;;2569024;23;20084;-72
2022/08/28 00:31:58;;;;;;;9.35;3.80;;;19.40;99.90;;;;;;2569072;23;20079;-72
2022/08/28 00:33:02;;;;;;;9.73;4.57;;;19.30;99.90;;;;;;2568995;23;20001;-72
2022/08/28 00:34:04;;;;;;;10.68;4.40;;;19.30;99.90;;;;;;2569154;23;20005;-72
2022/08/28 00:35:06;;;;;;;15.20;4.03;;;19.30;99.90;;;;;;2555951;23;20016;-72
2022/08/28 00:36:06;;;;;;;10.38;4.00;;;19.30;99.90;;;;;;2556129;23;20001;-72
2022/08/28 00:37:07;;;;;;;10.00;4.90;;;19.30;99.90;;;;;;2569365;23;19996;-72
2022/08/28 00:38:12;;;;;;;9.98;3.97;;;19.30;99.90;;;;;;2569098;23;20005;-72
2022/08/28 00:39:14;;;;;;;12.57;4.25;;;19.30;99.90;;;;;;2569081;23;20429;-72
2022/08/28 00:40:17;;;;;;;8.20;4.43;;;19.30;99.90;;;;;;2569311;23;20008;-72
2022/08/28 00:41:17;;;;;;;10.35;4.30;;;19.30;99.90;;;;;;2569128;23;20004;-72
2022/08/28 00:42:19;;;;;;;9.95;4.25;;;19.20;99.90;;;;;;2569369;23;19997;-72
2022/08/28 00:43:35;;;;;;;11.52;4.80;;;19.20;99.90;;;;;;2568337;23;20081;-72
2022/08/28 00:44:35;;;;;;;11.40;4.20;;;19.20;99.90;;;;;;2569347;23;20095;-72
2022/08/28 00:45:36;;;;;;;12.70;4.35;;;19.20;99.90;;;;;;2569395;23;19997;-72
2022/08/28 00:46:38;;;;;;;8.85;4.00;;;19.20;99.90;;;;;;2568920;23;20370;-72
2022/08/28 00:47:39;;;;;;;12.63;4.65;;;19.20;99.90;;;;;;2568790;23;20007;-72
2022/08/28 00:48:40;;;;;;;15.73;4.35;;;19.20;99.90;;;;;;2569228;23;20000;-72
2022/08/28 00:49:53;;;;;;;9.70;4.78;;;19.20;99.90;;;;;;2569413;23;20005;-72
2022/08/28 00:52:15;;;;;;;8.82;4.47;;;19.20;99.90;;;;;;2569317;23;20012;-72
2022/08/28 00:53:15;;;;;;;8.30;3.88;;;19.10;99.90;;;;;;2555483;23;20059;-72
2022/08/28 00:54:18;;;;;;;11.57;4.63;;;19.20;99.90;;;;;;2555819;23;20005;-72
2022/08/28 00:55:22;;;;;;;9.80;4.28;;;19.10;99.90;;;;;;2569051;23;20440;-72
2022/08/28 00:56:24;;;;;;;12.13;4.57;;;19.10;99.90;;;;;;2568892;23;20005;-72
2022/08/28 00:57:33;;;;;;;9.07;4.57;;;19.10;99.90;;;;;;2570007;23;20557;-72
2022/08/28 00:58:34;;;;;;;9.43;4.30;;;19.10;99.90;;;;;;2570064;23;19997;-72
2022/08/28 00:59:36;;;;;;;10.85;3.90;;;19.10;99.90;;;;;;2569974;23;20421;-72
2022/08/28 01:00:38;;;;;;;11.70;4.93;;;19.10;99.90;;;;;;2570562;23;20004;-72
2022/08/28 01:01:38;;;;;;;11.02;4.97;;;19.10;99.90;;;;;;2569874;23;20489;-72
2022/08/28 01:02:39;;;;;;;7.55;4.18;;;19.10;99.90;;;;;;2569960;23;20020;-72
2022/08/28 01:03:41;;;;;;;10.73;4.28;;;19.00;99.90;;;;;;2569350;23;19997;-72
2022/08/28 01:04:41;;;;;;;11.07;3.95;;;19.00;99.90;;;;;;2569469;23;20000;-72
2022/08/28 01:05:45;;;;;;;13.43;4.72;;;19.00;99.90;;;;;;2569734;23;19996;-72
2022/08/28 01:06:48;;;;;;;14.00;4.50;;;19.00;99.90;;;;;;2570141;23;20068;-72
2022/08/28 01:07:50;;;;;;;11.13;4.10;;;18.90;99.90;;;;;;2569974;23;20499;-72
2022/08/28 01:08:52;;;;;;;12.40;4.53;;;18.90;99.90;;;;;;2570424;23;20025;-72
2022/08/28 01:09:54;;;;;;;11.32;4.20;;;18.90;99.90;;;;;;2569806;23;20016;-71
2022/08/28 01:10:56;;;;;;;14.90;4.53;;;18.90;99.90;;;;;;2569798;23;20000;-72
2022/08/28 01:12:02;;;;;;;10.25;4.80;;;18.90;99.90;;;;;;2569942;23;19997;-72
2022/08/28 01:13:03;;;;;;;12.43;4.60;;;18.90;99.90;;;;;;2556249;23;20012;-72
2022/08/28 01:14:05;;;;;;;13.90;5.15;;;18.90;99.90;;;;;;2556869;23;20001;-72
2022/08/28 01:15:10;;;;;;;10.25;4.53;;;18.90;99.90;;;;;;2569781;23;20004;-72
2022/08/28 01:16:15;;;;;;;10.90;4.60;;;18.90;99.90;;;;;;2569503;23;20004;-72
2022/08/28 01:17:16;;;;;;;11.50;4.28;;;18.90;99.90;;;;;;2569823;23;20001;-72
2022/08/28 01:18:18;;;;;;;11.32;4.38;;;18.90;99.90;;;;;;2570119;23;20011;-72
2022/08/28 01:19:33;;;;;;;13.15;5.05;;;18.90;99.90;;;;;;2569945;23;20059;-72
2022/08/28 01:20:41;;;;;;;10.23;4.60;;;18.90;99.90;;;;;;2556796;23;19993;-72
2022/08/28 01:22:21;;;;;;;12.27;4.85;;;18.80;99.90;;;;;;2558355;23;20075;-72
2022/08/28 01:24:10;;;;;;;10.60;4.72;;;18.80;99.90;;;;;;2569659;23;20463;-72
2022/08/28 01:25:17;;;;;;;9.18;4.22;;;18.70;99.90;;;;;;2549939;23;20103;-71
2022/08/28 01:26:18;;;;;;;11.13;4.72;;;18.60;99.90;;;;;;2569749;23;20004;-72
2022/08/28 01:27:20;;;;;;;9.25;4.30;;;18.60;99.90;;;;;;2569838;23;20001;-72
2022/08/28 01:28:21;;;;;;;9.52;4.57;;;18.60;99.90;;;;;;2570053;23;19996;-71
2022/08/28 01:29:21;;;;;;;11.15;4.82;;;18.70;99.90;;;;;;2556521;23;20037;-72
2022/08/28 01:30:23;;;;;;;12.45;4.78;;;18.60;99.90;;;;;;2556888;23;20025;-72
2022/08/28 01:31:24;;;;;;;9.75;4.85;;;18.60;99.90;;;;;;2570008;23;20008;-72
2022/08/28 01:32:37;;;;;;;10.50;5.05;;;18.60;99.90;;;;;;2569555;23;20012;-72
2022/08/28 01:33:39;;;;;;;10.43;4.30;;;18.60;99.90;;;;;;2569461;23;20004;-72
2022/08/28 01:34:39;;;;;;;8.35;4.05;;;18.60;99.90;;;;;;2556637;23;20056;-72
2022/08/28 01:35:44;;;;;;;11.70;4.80;;;18.60;99.90;;;;;;2556388;23;20101;-72
2022/08/28 01:36:47;;;;;;;8.80;4.63;;;18.60;99.90;;;;;;2570235;23;20092;-72
2022/08/28 01:37:48;;;;;;;9.43;4.90;;;18.60;99.90;;;;;;2569990;23;20024;-72
2022/08/28 01:38:55;;;;;;;15.43;4.90;;;18.60;99.90;;;;;;2569785;23;20020;-72
2022/08/28 01:39:55;;;;;;;12.77;4.85;;;18.60;99.90;;;;;;2569833;23;20076;-72
2022/08/28 01:40:58;;;;;;;11.00;4.25;;;18.60;99.90;;;;;;2569788;23;20012;-72
2022/08/28 01:42:01;;;;;;;9.40;4.60;;;18.60;99.90;;;;;;2569943;23;20007;-72
2022/08/28 01:43:11;;;;;;;6.93;4.03;;;18.60;99.90;;;;;;2569579;23;19997;-72
2022/08/28 01:44:13;;;;;;;10.90;4.70;;;18.60;99.90;;;;;;2569564;23;20000;-72
2022/08/28 01:45:17;;;;;;;11.32;4.53;;;18.60;99.90;;;;;;2569584;23;20104;-72
2022/08/28 01:46:18;;;;;;;8.98;4.88;;;18.60;99.90;;;;;;2569863;23;20004;-71
2022/08/28 01:47:20;;;;;;;9.45;4.20;;;18.60;99.90;;;;;;2569523;23;20016;-72
2022/08/28 01:48:23;;;;;;;10.82;3.60;;;18.50;99.90;;;;;;2569893;23;20007;-72
2022/08/28 01:49:28;;;;;;;11.23;4.97;;;18.50;99.90;;;;;;2556383;23;20013;-72
2022/08/28 01:50:28;;;;;;;10.30;4.53;;;18.50;99.90;;;;;;2557053;23;20311;-72
2022/08/28 01:51:29;;;;;;;9.57;3.95;;;18.50;99.90;;;;;;2570110;23;20084;-72
2022/08/28 01:52:30;;;;;;;11.35;4.57;;;18.50;99.90;;;;;;2569877;23;20048;-72
2022/08/28 01:53:31;;;;;;;8.82;4.57;;;18.50;99.90;;;;;;2569437;23;20079;-72
2022/08/28 01:54:32;;;;;;;11.13;4.32;;;18.50;99.90;;;;;;2569630;23;20027;-72
2022/08/28 01:55:34;;;;;;;10.90;4.28;;;18.50;99.90;;;;;;2569588;23;20425;-72
2022/08/28 01:56:35;;;;;;;10.63;4.20;;;18.50;99.90;;;;;;2569556;23;20035;-72
2022/08/28 01:57:48;;;;;;;10.43;4.80;;;18.50;99.90;;;;;;2570116;23;20100;-72
2022/08/28 01:58:49;;;;;;;6.93;3.90;;;18.50;99.90;;;;;;2569579;23;20016;-72
2022/08/28 01:59:50;;;;;;;14.07;4.60;;;18.50;99.90;;;;;;2569811;23;20083;-72
2022/08/28 02:00:51;;;;;;;9.63;4.40;;;18.50;99.90;;;;;;2556520;23;20001;-72
2022/08/28 02:01:53;;;;;;;14.63;5.18;;;18.50;99.90;;;;;;2556838;23;20124;-72
2022/08/28 02:02:57;;;;;;;8.60;4.75;;;18.40;99.90;;;;;;2569261;23;19997;-72
2022/08/28 02:03:58;;;;;;;11.35;4.65;;;18.40;99.90;;;;;;2555600;23;20084;-72
2022/08/28 02:04:59;;;;;;;10.98;4.80;;;18.40;99.90;;;;;;2555843;23;20497;-72
2022/08/28 02:05:59;;;;;;;12.50;4.70;;;18.40;99.90;;;;;;2569508;23;20306;-72
2022/08/28 02:07:00;;;;;;;10.05;4.45;;;18.40;99.90;;;;;;2569813;23;20007;-72
2022/08/28 02:08:03;;;;;;;9.02;4.68;;;18.40;99.90;;;;;;2569968;23;20460;-72
2022/08/28 02:09:05;;;;;;;8.70;4.25;;;18.40;99.90;;;;;;2569699;23;20083;-72
2022/08/28 02:10:07;;;;;;;11.05;4.38;;;18.30;99.90;;;;;;2570012;23;20004;-72
2022/08/28 02:11:09;;;;;;;7.95;3.92;;;18.30;99.90;;;;;;2569349;23;20000;-72
2022/08/28 02:12:09;;;;;;;11.57;5.28;;;18.30;99.90;;;;;;2569704;23;20027;-71
2022/08/28 02:13:11;;;;;;;10.35;4.57;;;18.30;99.90;;;;;;2569495;23;20012;-71
2022/08/28 02:14:11;;;;;;;9.20;4.53;;;18.30;99.90;;;;;;2569515;23;20001;-72
2022/08/28 02:15:12;;;;;;;11.38;4.40;;;18.30;99.90;;;;;;2569344;23;20005;-72
2022/08/28 02:16:12;;;;;;;8.65;4.47;;;18.30;99.90;;;;;;2569034;23;20479;-72
2022/08/28 02:17:13;;;;;;;9.43;4.28;;;18.30;99.90;;;;;;2569492;23;20076;-72
2022/08/28 02:18:14;;;;;;;11.70;4.65;;;18.20;99.90;;;;;;2556846;23;20058;-72
2022/08/28 02:19:15;;;;;;;7.72;4.45;;;18.20;99.90;;;;;;2556366;23;20054;-72
2022/08/28 02:20:15;;;;;;;10.15;4.38;;;18.20;99.90;;;;;;2556585;23;20108;-72
2022/08/28 02:21:17;;;;;;;12.38;4.90;;;18.20;99.90;;;;;;2569900;23;20020;-71
2022/08/28 02:22:17;;;;;;;10.95;4.82;;;18.20;99.90;;;;;;2569424;23;20011;-72
2022/08/28 02:23:18;;;;;;;10.88;4.15;;;18.10;99.90;;;;;;2569213;23;20007;-72
2022/08/28 02:24:19;;;;;;;9.50;4.80;;;18.20;99.90;;;;;;2569695;23;19996;-71
2022/08/28 02:25:19;;;;;;;10.45;5.00;;;18.10;99.90;;;;;;2569705;23;20026;-71
2022/08/28 02:26:20;;;;;;;9.52;4.53;;;18.10;99.90;;;;;;2569342;23;20055;-71
2022/08/28 02:27:21;;;;;;;10.35;4.60;;;18.10;99.90;;;;;;2569766;23;20042;-72
2022/08/28 02:28:21;;;;;;;9.93;4.72;;;18.10;99.90;;;;;;2569950;23;20004;-72
2022/08/28 02:29:22;;;;;;;8.73;4.07;;;18.10;99.90;;;;;;2556060;23;20005;-72
2022/08/28 02:30:23;;;;;;;8.60;4.75;;;18.00;99.90;;;;;;2556045;23;20404;-72
2022/08/28 02:31:25;;;;;;;9.32;4.05;;;18.00;99.90;;;;;;2569959;23;20013;-71
2022/08/28 02:32:26;;;;;;;9.70;4.47;;;18.00;99.90;;;;;;2569535;23;20009;-71
2022/08/28 02:33:27;;;;;;;8.77;4.47;;;18.00;99.90;;;;;;2569444;23;20070;-71
2022/08/28 02:34:27;;;;;;;12.35;4.70;;;17.90;99.90;;;;;;2569302;23;20008;-72
2022/08/28 02:35:30;;;;;;;8.82;4.47;;;17.90;99.90;;;;;;2569771;23;20051;-72
2022/08/28 02:36:30;;;;;;;10.43;4.25;;;17.90;99.90;;;;;;2569583;23;20035;-71
2022/08/28 02:37:32;;;;;;;7.55;3.80;;;17.90;99.90;;;;;;2569689;23;19996;-72
2022/08/28 02:38:33;;;;;;;9.68;4.55;;;17.80;99.90;;;;;;2569410;23;20329;-72
2022/08/28 02:39:34;;;;;;;9.25;4.30;;;17.80;99.90;;;;;;2569749;23;20012;-72
2022/08/28 02:40:35;;;;;;;9.23;4.28;;;17.80;99.90;;;;;;2555988;23;20151;-72
2022/08/28 02:41:36;;;;;;;7.68;4.35;;;17.80;99.90;;;;;;2556797;23;20096;-72
2022/08/28 02:42:37;;;;;;;8.80;4.50;;;17.80;99.90;;;;;;2569752;23;19992;-72
2022/08/28 02:43:38;;;;;;;8.90;4.60;;;17.70;99.90;;;;;;2569220;23;20413;-72
2022/08/28 02:44:38;;;;;;;7.97;4.45;;;17.80;99.90;;;;;;2569554;23;20413;-72
2022/08/28 02:45:39;;;;;;;8.55;4.63;;;17.70;99.90;;;;;;2569115;23;20393;-71
2022/08/28 02:46:39;;;;;;;7.78;3.95;;;17.70;99.90;;;;;;2569409;23;20032;-71
2022/08/28 02:47:42;;;;;;;8.95;4.60;;;17.70;99.90;;;;;;2569639;23;19996;-72
2022/08/28 02:48:43;;;;;;;7.18;4.43;;;17.70;99.90;;;;;;2569448;23;20016;-72
2022/08/28 02:49:44;;;;;;;8.70;4.57;;;17.70;99.90;;;;;;2569414;23;20039;-71
2022/08/28 02:50:45;;;;;;;8.23;3.97;;;17.60;99.90;;;;;;2569599;23;20008;-71
2022/08/28 02:51:46;;;;;;;9.50;4.72;;;17.60;99.90;;;;;;2569785;23;20068;-71
2022/08/28 02:52:47;;;;;;;8.45;4.13;;;17.60;99.90;;;;;;2569918;23;19996;-71
2022/08/28 02:53:49;;;;;;;8.88;4.10;;;17.60;99.90;;;;;;2569312;23;20000;-71
2022/08/28 02:54:49;;;;;;;10.30;4.60;;;17.50;99.90;;;;;;2569573;23;20000;-71
2022/08/28 02:55:50;;;;;;;7.55;4.80;;;17.50;99.90;;;;;;2569485;23;20051;-72
2022/08/28 02:56:51;;;;;;;8.25;4.40;;;17.50;99.90;;;;;;2569489;23;20420;-72
2022/08/28 02:57:53;;;;;;;7.15;4.20;;;17.50;99.90;;;;;;2569362;23;20641;-72
2022/08/28 02:58:54;;;;;;;10.15;5.32;;;17.50;99.90;;;;;;2556261;23;20547;-71
2022/08/28 02:59:55;;;;;;;9.65;4.45;;;17.40;99.90;;;;;;2556076;23;20060;-72
2022/08/28 03:00:56;;;;;;;9.18;4.88;;;17.40;99.90;;;;;;2569583;23;20051;-71
2022/08/28 03:01:57;;;;;;;6.43;4.32;;;17.40;99.90;;;;;;2556218;23;20024;-71
2022/08/28 03:02:57;;;;;;;10.75;4.82;;;17.40;99.90;;;;;;2555992;23;20013;-71
2022/08/28 03:04:01;;;;;;;7.55;3.55;;;17.30;99.90;;;;;;2569939;23;20337;-71
2022/08/28 03:05:03;;;;;;;9.48;4.72;;;17.30;99.90;;;;;;2569051;23;20005;-72
2022/08/28 03:06:04;;;;;;;5.82;3.95;;;17.30;99.90;;;;;;2569681;23;20071;-71
2022/08/28 03:07:08;;;;;;;8.43;4.32;;;17.30;99.90;;;;;;2569596;23;20009;-71
2022/08/28 03:08:08;;;;;;;7.30;3.78;;;17.20;99.90;;;;;;2569266;23;20005;-71
2022/08/28 03:09:09;;;;;;;6.78;3.90;;;17.30;99.90;;;;;;2569823;23;20032;-71
2022/08/28 03:10:10;;;;;;;11.07;4.80;;;17.30;99.90;;;;;;2569441;23;20364;-72
2022/08/28 03:11:10;;;;;;;9.43;4.20;;;17.20;99.90;;;;;;2569440;23;20380;-71
2022/08/28 03:12:15;;;;;;;10.55;4.97;;;17.20;99.90;;;;;;2569746;23;20015;-71
2022/08/28 03:13:17;;;;;;;9.57;4.75;;;17.20;99.90;;;;;;2569169;23;20009;-71
2022/08/28 03:14:17;;;;;;;9.77;4.78;;;17.20;99.90;;;;;;2569500;23;20040;-71
2022/08/28 03:15:18;;;;;;;9.40;4.43;;;17.10;99.90;;;;;;2569236;23;20011;-71
2022/08/28 03:16:19;;;;;;;7.65;4.30;;;17.10;99.90;;;;;;2568696;23;20004;-71
2022/08/28 03:17:20;;;;;;;10.70;4.90;;;17.10;99.90;;;;;;2569553;23;20008;-71
2022/08/28 03:18:21;;;;;;;8.95;4.20;;;17.10;99.90;;;;;;2569647;23;20004;-71
2022/08/28 03:19:23;;;;;;;7.25;4.47;;;17.10;99.90;;;;;;2569211;23;20035;-71
2022/08/28 03:20:23;;;;;;;8.90;4.38;;;17.10;99.90;;;;;;2569424;23;20008;-72
2022/08/28 03:21:24;;;;;;;7.50;4.45;;;17.00;99.90;;;;;;2569226;23;20001;-72
2022/08/28 03:23:44;;;;;;;9.45;4.43;;;17.00;99.90;;;;;;2569373;23;20026;-72
2022/08/28 03:24:45;;;;;;;6.95;4.03;;;17.00;99.90;;;;;;2569271;23;20008;-71
2022/08/28 03:25:45;;;;;;;7.60;4.97;;;17.00;99.90;;;;;;2569115;23;20003;-71
2022/08/28 03:26:46;;;;;;;10.95;4.70;;;16.90;99.90;;;;;;2556529;23;20410;-71
2022/08/28 03:27:47;;;;;;;7.93;4.00;;;16.90;99.90;;;;;;2555980;23;20024;-71
2022/08/28 03:28:51;;;;;;;11.68;4.85;;;16.90;99.90;;;;;;2569668;23;19997;-71
2022/08/28 03:29:51;;;;;;;9.98;4.22;;;16.90;99.90;;;;;;2569248;23;20012;-71
2022/08/28 03:30:53;;;;;;;8.13;4.65;;;16.90;99.90;;;;;;2569259;23;20004;-71
2022/08/28 03:31:53;;;;;;;12.15;4.80;;;16.90;99.90;;;;;;2569583;23;20000;-72
2022/08/28 03:32:54;;;;;;;10.18;4.82;;;16.90;99.90;;;;;;2569553;23;20023;-72
2022/08/28 03:33:55;;;;;;;9.55;4.13;;;16.90;99.90;;;;;;2569169;23;20000;-71
2022/08/28 03:34:55;;;;;;;7.75;4.22;;;16.90;99.90;;;;;;2569419;23;20309;-71
2022/08/28 03:35:56;;;;;;;10.70;4.70;;;16.90;99.90;;;;;;2569248;23;20009;-72
2022/08/28 03:36:57;;;;;;;9.45;4.97;;;16.90;99.90;;;;;;2569350;23;20011;-72
2022/08/28 03:37:58;;;;;;;11.63;5.03;;;16.80;99.90;;;;;;2569950;23;20000;-71
2022/08/28 03:39:01;;;;;;;8.63;4.38;;;16.90;99.90;;;;;;2569428;23;20440;-71
2022/08/28 03:40:03;;;;;;;9.23;4.38;;;16.80;99.90;;;;;;2569268;23;20075;-71
2022/08/28 03:41:10;;;;;;;10.18;4.75;;;16.80;99.90;;;;;;2568543;23;20435;-71
2022/08/28 03:42:11;;;;;;;11.15;5.15;;;16.90;99.90;;;;;;2556032;23;20005;-71
2022/08/28 03:43:16;;;;;;;7.70;5.18;;;16.80;99.90;;;;;;2555332;23;20029;-71
2022/08/28 03:44:17;;;;;;;10.30;5.18;;;16.80;99.90;;;;;;2557507;23;20005;-72
2022/08/28 03:45:18;;;;;;;10.88;4.93;;;16.80;99.90;;;;;;2569208;23;20072;-71
2022/08/28 03:46:22;;;;;;;9.20;4.20;;;16.80;99.90;;;;;;2569260;23;20001;-71
2022/08/28 03:47:23;;;;;;;10.70;4.97;;;16.80;99.90;;;;;;2569036;23;20000;-71
2022/08/28 03:48:35;;;;;;;11.02;5.13;;;16.80;99.90;;;;;;2569242;23;20023;-72
2022/08/28 03:49:35;;;;;;;13.27;4.93;;;16.80;99.90;;;;;;2569565;23;20409;-71
2022/08/28 03:50:39;;;;;;;8.27;4.40;;;16.80;99.90;;;;;;2569451;23;20385;-71
2022/08/28 03:51:39;;;;;;;11.30;4.25;;;16.80;99.90;;;;;;2569020;23;20001;-71
2022/08/28 03:52:40;;;;;;;8.70;4.50;;;16.80;99.90;;;;;;2568975;23;20004;-71
2022/08/28 03:53:41;;;;;;;9.43;4.30;;;16.80;99.90;;;;;;2569033;23;20000;-72
2022/08/28 03:54:42;;;;;;;9.15;4.53;;;16.80;99.90;;;;;;2569538;23;20027;-71
2022/08/28 03:55:43;;;;;;;10.02;4.50;;;16.80;99.90;;;;;;2569113;23;20000;-71
2022/08/28 03:56:43;;;;;;;11.23;4.78;;;16.80;99.90;;;;;;2555547;23;20005;-72
2022/08/28 03:57:44;;;;;;;11.38;4.97;;;16.80;99.90;;;;;;2556266;23;20005;-72
2022/08/28 03:58:45;;;;;;;9.38;4.95;;;16.80;99.90;;;;;;2568999;23;20000;-71
2022/08/28 03:59:51;;;;;;;11.85;5.20;;;16.80;99.90;;;;;;2569024;23;20696;-72
2022/08/28 04:00:52;;;;;;;8.98;4.93;;;16.80;99.90;;;;;;2569381;23;20070;-71
2022/08/28 04:01:53;;;;;;;12.60;5.25;;;16.80;99.90;;;;;;2556045;23;20009;-71
2022/08/28 04:02:53;;;;;;;8.88;4.78;;;16.80;99.90;;;;;;2556134;23;20338;-71
2022/08/28 04:03:55;;;;;;;9.80;5.15;;;16.90;99.90;;;;;;2555751;23;20001;-71
2022/08/28 04:04:55;;;;;;;8.77;4.97;;;16.80;99.90;;;;;;2568890;23;20000;-71
2022/08/28 04:05:56;;;;;;;10.43;4.82;;;16.90;99.90;;;;;;2569348;23;20035;-71
2022/08/28 04:06:56;;;;;;;11.23;5.10;;;16.90;99.90;;;;;;2569046;23;20380;-71
2022/08/28 04:07:57;;;;;;;11.10;5.45;;;16.90;99.90;;;;;;2569135;23;20036;-71
2022/08/28 04:08:58;;;;;;;10.75;4.97;;;16.90;99.90;;;;;;2556096;23;20005;-71
2022/08/28 04:09:58;;;;;;;11.93;5.07;;;16.90;99.90;;;;;;2555899;23;20473;-72
2022/08/28 04:10:59;;;;;;;10.18;4.95;;;16.90;99.90;;;;;;2555881;23;20005;-72
2022/08/28 04:12:00;;;;;;;11.18;5.20;;;16.90;99.90;;;;;;2556327;23;20334;-72
2022/08/28 04:13:02;;;;;;;12.40;5.15;;;16.90;99.90;;;;;;2568901;23;19996;-72
2022/08/28 04:14:02;;;;;;;9.80;5.03;;;16.90;99.90;;;;;;2569605;23;20373;-71
2022/08/28 04:15:04;;;;;;;13.45;5.03;;;16.90;99.90;;;;;;2568856;23;20083;-71
2022/08/28 04:16:09;;;;;;;10.82;4.97;;;16.90;99.90;;;;;;2568842;23;20024;-71
2022/08/28 04:17:10;;;;;;;13.23;5.60;;;16.90;99.90;;;;;;2569119;23;20001;-71
2022/08/28 04:18:11;;;;;;;13.25;4.60;;;16.90;99.90;;;;;;2569059;23;19996;-72
2022/08/28 04:19:12;;;;;;;8.73;4.13;;;16.90;99.90;;;;;;2555802;23;20001;-72
2022/08/28 04:20:13;;;;;;;12.02;5.13;;;16.90;99.90;;;;;;2556130;23;20397;-72
2022/08/28 04:21:19;;;;;;;13.55;5.13;;;16.90;99.90;;;;;;2569149;23;20005;-72
2022/08/28 04:22:20;;;;;;;10.55;4.75;;;16.90;99.90;;;;;;2569705;23;19996;-72
2022/08/28 04:23:22;;;;;;;9.35;4.57;;;16.90;99.90;;;;;;2568890;23;20444;-72
2022/08/28 04:24:22;;;;;;;7.70;4.20;;;16.90;99.90;;;;;;2569224;23;20140;-72
2022/08/28 04:25:23;;;;;;;12.65;4.97;;;16.90;99.90;;;;;;2569380;23;20011;-72
2022/08/28 04:26:25;;;;;;;9.18;4.50;;;16.90;99.90;;;;;;2569077;23;20051;-71
2022/08/28 04:27:26;;;;;;;11.38;5.25;;;16.90;99.90;;;;;;2569071;23;20000;-71
2022/08/28 04:28:27;;;;;;;11.90;5.47;;;17.00;99.90;;;;;;2569111;23;20468;-71
2022/08/28 04:29:29;;;;;;;10.18;4.82;;;17.00;99.90;;;;;;2569276;23;20040;-71
2022/08/28 04:30:29;;;;;;;13.70;5.28;;;17.00;99.90;;;;;;2569094;23;20036;-71
2022/08/28 04:31:30;;;;;;;11.70;4.90;;;17.00;99.90;;;;;;2555863;23;20462;-71
2022/08/28 04:32:34;;;;;;;10.07;4.60;;;17.00;99.90;;;;;;2556706;23;20012;-71
2022/08/28 04:33:35;;;;;;;14.93;5.80;;;17.00;99.90;;;;;;2569843;23;20004;-71
2022/08/28 04:34:37;;;;;;;12.90;4.82;;;17.00;99.90;;;;;;2570143;23;20007;-71
2022/08/28 04:35:40;;;;;;;11.27;5.03;;;17.00;99.90;;;;;;2569754;23;20091;-71
2022/08/28 04:36:41;;;;;;;10.57;4.80;;;17.00;99.90;;;;;;2569891;23;19992;-71
2022/08/28 04:37:44;;;;;;;9.45;5.32;;;17.00;99.90;;;;;;2569999;23;20071;-72
2022/08/28 04:38:45;;;;;;;9.15;4.68;;;16.90;99.90;;;;;;2569824;23;20426;-72
2022/08/28 04:39:45;;;;;;;11.05;4.80;;;17.00;99.90;;;;;;2570289;23;20710;-72
2022/08/28 04:40:46;;;;;;;11.63;5.15;;;17.00;99.90;;;;;;2556651;23;20092;-71
2022/08/28 04:41:48;;;;;;;12.10;5.20;;;17.00;99.90;;;;;;2557169;23;20052;-71
2022/08/28 04:42:50;;;;;;;12.25;4.15;;;17.00;99.90;;;;;;2570003;23;20071;-71
2022/08/28 04:43:52;;;;;;;11.50;4.95;;;17.00;99.90;;;;;;2569680;23;20032;-72
2022/08/28 04:44:58;;;;;;;9.55;5.10;;;16.90;99.90;;;;;;2570342;23;20001;-72
2022/08/28 04:46:03;;;;;;;10.05;4.47;;;17.00;99.90;;;;;;2569802;23;20001;-72
2022/08/28 04:47:04;;;;;;;14.60;5.35;;;17.00;99.90;;;;;;2569925;23;19997;-72
2022/08/28 04:48:05;;;;;;;13.45;5.63;;;16.90;99.90;;;;;;2556726;23;20009;-72
2022/08/28 04:49:05;;;;;;;13.02;5.07;;;16.90;99.90;;;;;;2556498;23;20346;-72
2022/08/28 04:50:07;;;;;;;10.77;4.57;;;17.00;99.90;;;;;;2570224;23;20000;-72
2022/08/28 04:51:09;;;;;;;10.98;5.00;;;16.90;99.90;;;;;;2557011;23;20009;-71
2022/08/28 04:52:10;;;;;;;11.25;4.65;;;17.00;99.90;;;;;;2556961;23;20009;-71
2022/08/28 04:53:11;;;;;;;13.25;4.97;;;16.90;99.90;;;;;;2569802;23;20031;-71
2022/08/28 04:54:12;;;;;;;8.27;4.78;;;17.00;99.90;;;;;;2569835;23;20004;-71
2022/08/28 04:55:13;;;;;;;12.90;5.30;;;17.00;99.90;;;;;;2556714;23;20468;-71
2022/08/28 04:56:14;;;;;;;10.80;5.00;;;16.90;99.90;;;;;;2556581;23;20013;-71
2022/08/28 04:57:15;;;;;;;14.23;4.90;;;16.90;99.90;;;;;;2557062;23;20141;-71
2022/08/28 04:58:17;;;;;;;9.52;4.70;;;17.00;99.90;;;;;;2556875;23;20047;-71
2022/08/28 04:59:18;;;;;;;9.50;4.43;;;17.00;99.90;;;;;;2569956;23;20024;-71
2022/08/28 05:00:18;;;;;;;11.35;4.65;;;16.90;99.90;;;;;;2569695;23;20001;-71
2022/08/28 05:01:23;;;;;;;10.10;4.90;;;17.00;99.90;;;;;;2569688;23;20318;-71
2022/08/28 05:02:23;;;;;;;11.90;4.88;;;17.00;99.90;;;;;;2570201;23;20421;-71
2022/08/28 05:03:24;;;;;;;12.00;5.13;;;17.00;99.90;;;;;;2569717;23;20427;-71
2022/08/28 05:04:25;;;;;;;8.50;4.90;;;16.90;99.90;;;;;;2556867;23;20100;-71
2022/08/28 05:05:26;;;;;;;11.18;4.55;;;17.00;99.90;;;;;;2556986;23;20008;-71
2022/08/28 05:06:29;;;;;;;11.63;5.05;;;16.90;99.90;;;;;;2569602;23;20035;-72
2022/08/28 05:07:29;;;;;;;9.10;4.93;;;17.00;99.90;;;;;;2570144;23;20012;-71
2022/08/28 05:08:30;;;;;;;15.20;4.97;;;17.00;99.90;;;;;;2569835;23;20035;-71
2022/08/28 05:09:31;;;;;;;10.75;5.43;;;16.90;99.90;;;;;;2570161;23;20386;-71
2022/08/28 05:10:31;;;;;;;10.02;4.30;;;16.90;99.90;;;;;;2570079;23;20012;-71
2022/08/28 05:11:32;;;;;;;9.82;4.45;;;16.90;99.90;;;;;;2570010;23;20027;-71
2022/08/28 05:12:35;;;;;;;12.63;4.90;;;17.00;99.90;;;;;;2569781;23;20005;-71
2022/08/28 05:13:36;;;;;;;10.90;4.70;;;16.90;99.90;;;;;;2569824;23;20380;-72
2022/08/28 05:14:37;;;;;;;9.38;4.03;;;16.90;99.90;;;;;;2569765;23;19997;-71
2022/08/28 05:15:48;;;;;;;10.90;4.47;;;16.90;99.90;;;;;;2556403;23;20036;-72
2022/08/28 05:16:51;;;;;;;11.32;4.55;;;17.00;99.90;;;;;;2558815;23;20008;-71
2022/08/28 05:17:52;;;;;;;9.95;4.35;;;17.00;99.90;;;;;;2569440;23;20001;-71
2022/08/28 05:18:52;;;;;;;12.82;5.00;;;17.00;99.90;;;;;;2570045;23;20088;-71
2022/08/28 05:19:53;;;;;;;9.57;4.18;;;17.00;99.90;;;;;;2569889;23;20012;-71
2022/08/28 05:20:53;;;;;;;14.02;5.38;;;17.00;99.90;;;;;;2556500;23;20488;-71
2022/08/28 05:21:54;;;;;;;11.05;4.82;;;17.00;99.90;;;;;;2556461;23;20102;-71
2022/08/28 05:22:54;;;;;;;12.10;4.65;;;17.00;99.90;;;;;;2556398;23;20084;-71
2022/08/28 05:23:56;;;;;;;10.88;4.95;;;16.90;99.90;;;;;;2569506;23;20029;-72
2022/08/28 05:24:59;;;;;;;13.48;4.80;;;17.00;99.90;;;;;;2569923;23;20000;-72